TimeAKDT,TemperatureF,Dew PointF,Humidity,Sea Level PressureIn,VisibilityMPH,Wind Direction,Wind SpeedMPH,Gust SpeedMPH,PrecipitationIn,Events,Conditions,WindDirDegrees,DateUTC
12:53 AM,30.9,21.0,67,30.44,10.0,SE,6.9,-,N/A,,Clear,140,2012-10-02 08:53:00
1:53 AM,30.0,19.9,66,30.45,10.0,ESE,4.6,-,N/A,,Clear,110,2012-10-02 09:53:00
2:53 AM,25.0,15.1,66,30.48,10.0,NNE,6.9,-,N/A,,Partly Cloudy,20,2012-10-02 10:53:00
3:53 AM,25.0,15.1,66,30.48,10.0,NE,5.8,-,N/A,,Clear,40,2012-10-02 11:53:00
4:53 AM,24.1,15.1,69,30.48,10.0,NE,5.8,-,N/A,,Clear,40,2012-10-02 12:53:00
5:53 AM,21.9,15.1,75,30.49,10.0,North,4.6,-,N/A,,Scattered Clouds,360,2012-10-02 13:53:00
6:53 AM,19.9,14.0,78,30.48,10.0,Calm,Calm,-,N/A,,Mostly Cloudy,0,2012-10-02 14:53:00
7:53 AM,19.9,14.0,78,30.48,10.0,NW,3.5,-,N/A,,Scattered Clouds,320,2012-10-02 15:53:00
8:53 AM,24.1,16.0,71,30.46,10.0,Calm,Calm,-,N/A,,Overcast,0,2012-10-02 16:53:00
9:53 AM,26.1,17.1,69,30.44,10.0,NW,5.8,-,N/A,,Overcast,320,2012-10-02 17:53:00
10:53 AM,28.9,18.0,64,30.43,10.0,North,4.6,-,N/A,,Overcast,350,2012-10-02 18:53:00
11:53 AM,33.1,19.0,56,30.42,10.0,Calm,Calm,-,N/A,,Overcast,0,2012-10-02 19:53:00
12:53 PM,39.0,19.9,46,30.39,10.0,SSE,11.5,20.7,N/A,,Overcast,150,2012-10-02 20:53:00
1:53 PM,41.0,27.0,57,30.38,10.0,SSE,19.6,28.8,N/A,,Overcast,150,2012-10-02 21:53:00
2:53 PM,39.0,30.0,70,30.39,10.0,SSE,17.3,28.8,N/A,,Overcast,160,2012-10-02 22:53:00
3:53 PM,39.9,26.1,58,30.37,10.0,SSE,19.6,25.3,N/A,,Overcast,160,2012-10-02 23:53:00
4:53 PM,42.1,19.0,40,30.35,10.0,SSE,19.6,31.1,N/A,,Overcast,150,2012-10-03 00:53:00
5:53 PM,41.0,19.0,41,30.34,10.0,SSE,20.7,31.1,N/A,,Overcast,160,2012-10-03 01:53:00
6:53 PM,41.0,19.0,41,30.36,10.0,SSE,17.3,25.3,N/A,,Overcast,160,2012-10-03 02:53:00
7:53 PM,37.9,23.0,55,30.35,10.0,SSE,12.7,20.7,N/A,,Overcast,150,2012-10-03 03:53:00
8:53 PM,37.9,27.0,65,30.33,10.0,SSE,17.3,26.5,N/A,,Overcast,150,2012-10-03 04:53:00
9:25 PM,37.4,26.6,65,30.24,10.0,SSE,15.0,-,N/A,,Overcast,160,2012-10-03 05:25:00
9:53 PM,37.0,28.0,70,30.33,10.0,SSE,11.5,-,N/A,,Clear,160,2012-10-03 05:53:00
10:53 PM,37.9,27.0,65,30.32,10.0,SSE,15.0,23.0,N/A,,Mostly Cloudy,150,2012-10-03 06:53:00
11:53 PM,37.0,27.0,67,30.34,10.0,SSE,12.7,-,N/A,,Overcast,150,2012-10-03 07:53:00